This is the latest recevied weather packets stored in our database for station/object KE0PRS. If no packets are shown the sender has not sent any weather packets the latest 1 day(s).
| Time | Temp. | Humidity | Pressure | Rain* | Wind** | Luminosity | Snow |
|---|---|---|---|---|---|---|---|
| 1836274790 | 18.89° C | 90% | 1016.2 hPa | 55.12 mm | 0.89 m/s, 44° | 0 W/m² | - |
| 1836274488 | 18.89° C | 90% | 1016.2 hPa | 40.89 mm | 0 m/s | 0 W/m² | - |
| 1836274342 | 17.78° C | 91% | 1016.3 hPa | 62.48 mm | 1.34 m/s, 133° | 0 W/m² | - |
| 1836274186 | 18.89° C | 86% | 1016 hPa | 16.76 mm | 1.34 m/s, 247° | 0 W/m² | - |
| 1836273886 | 19.44° C | 81% | 1016.3 hPa | 1.78 mm | 1.34 m/s, 197° | 0 W/m² | - |
| 1778051014 | 6.67° C | 94% | 1018.3 hPa | 1.27 mm | 0 m/s | 0 W/m² | - |
| 1778050712 | 6.67° C | 94% | 1018.5 hPa | 1.78 mm | 0.45 m/s, 171° | 0 W/m² | - |
| 1778050409 | 6.67° C | 94% | 1018.4 hPa | 0 mm | 0 m/s | 0 W/m² | - |
| 1778050106 | 6.67° C | 93% | 1018.4 hPa | 0 mm | 0 m/s | 0 W/m² | - |
| 1778049801 | 6.67° C | 93% | 1018.5 hPa | 0 mm | 0 m/s | 0 W/m² | - |
| 1778049499 | 6.67° C | 93% | 1018 hPa | 0 mm | 0 m/s | 0 W/m² | - |
| 1778049196 | 6.11° C | 93% | 1018.2 hPa | 0 mm | 0 m/s | 0 W/m² | - |
| 1778048895 | 6.11° C | 93% | 1017.9 hPa | 0 mm | 0 m/s | 0 W/m² | - |
| 1778048592 | 6.11° C | 93% | 1017.4 hPa | 0 mm | 0.45 m/s, 127° | 0 W/m² | - |
| 1778048288 | 6.11° C | 92% | 1017.4 hPa | 1.27 mm | 0 m/s | 0 W/m² | - |
| 1778047984 | 6.11° C | 92% | 1016.6 hPa | 1.27 mm | 0.45 m/s, 143° | 0 W/m² | - |
| 1778047683 | 6.11° C | 92% | 1016.7 hPa | 0 mm | 0.45 m/s, 139° | 0 W/m² | - |
| 1778047381 | 6.11° C | 92% | 1016.6 hPa | 0 mm | 0.45 m/s, 143° | 0 W/m² | - |
| 1778047076 | 6.11° C | 91% | 1017 hPa | 0 mm | 0 m/s | 0 W/m² | - |
| 1778046774 | 6.11° C | 91% | 1016.9 hPa | 0 mm | 0.89 m/s, 26° | 0 W/m² | - |
| 1778046471 | 6.11° C | 90% | 1016.9 hPa | 0 mm | 0.45 m/s, 150° | 0 W/m² | - |
| 1778046167 | 6.67° C | 90% | 1016.9 hPa | 0 mm | 0 m/s | 0 W/m² | - |
| 1778045864 | 6.67° C | 89% | 1016.7 hPa | 1.78 mm | 1.34 m/s, 1° | 0 W/m² | - |
| 1778045563 | 6.67° C | 89% | 1016.9 hPa | 1.78 mm | 0 m/s | 0 W/m² | - |
| 1778045260 | 6.67° C | 88% | 1016.8 hPa | 0 mm | 0 m/s | 0 W/m² | - |
* Rain latest hour (hover to see other rain measurements)
** Current wind speed in m/s (hover to see current wind gust speed)